Aérodrome :
LOGIN :

S'inscrire | Disclaimer

   EN    FR    IT 

 










Légende :    VFR   VFR Marginal   IFR   IFR Intensif   IFR Très Intensif
Visi : 
Plafond : 
>= 8 km
>= 3000ft
5 à 8 km
1000 à 3000 ft
1500m à 5 km
500 à 1000 ft
800 à 1500m
200 à 500 ft
< 800m
< 200 ft
Symboles :   Orages  Brouillard  Fortes neiges  Fortes précipitations  Vent > 20 kt
SIGMETs :   Divers  Orages  Givrage  Turbulence  Onde Orograph.  Cendres Volcan.







- Altitude de l'aérodrome : -15 ft
- Code IATA : RTM


EHRD - Rotterdam Zestienhoven

DERNIER METAR :
  • 210925Z AUTO 26018G29KT 230V330 9999 FEW041 15/08 Q1005 NOSIG

METARs EXPIRÉS :
  • 210855Z AUTO 26019G30KT 210V310 9999 FEW033 BKN040 BKN046 15/08 Q1004 NOSIG
  • 210825Z AUTO 26018G30KT 230V290 9999 SCT032 SCT040 16/10 Q1003 NOSIG
  • 210755Z AUTO 25016G29KT 220V300 9999 FEW036 BKN046 16/10 Q1002 BECMG 26022G35KT
  • 210725Z AUTO 25019G29KT 220V290 9999 SCT027 16/11 Q1002 BECMG 26022G35KT
  • 210655Z AUTO 25021G33KT 220V290 9999 FEW028 BKN036 BKN041 16/11 Q1001 NOSIG

TAF TAF EHRD
Valide du 21 à 06h jusqu'au 22 à 12h UTC


210428Z 2106/2212 22025G35KT 9999 BKN040
TEMPO 2106/2107 24028G42KT 6000 RA -SHRA SCT018TCU BKN025
BECMG 2106/2108 26026G38KT SCT025
BECMG 2109/2112 24022G33KT
TEMPO 2116/2204 6000 SHRA SCT022CB BKN030
PROB40
TEMPO 2116/2121 25026G38KT 4000 TSRAGS
BECMG 2119/2122 28018G28KT
BECMG 2122/2201 27012KT
Pas de NOTAMs connus pour ce terrain.
2 SIGMETs publiés pour la FIR Amsterdam (EHAA) :
 
Turbulence forte
EHAA SIGMET 2 VALID 210857/211100 EHDB
EHAA AMSTERDAM FIR SEV TURB FCST N OF LINE N5456 E00256 - N5501 E00502 SFC/FL060 MOV NE 15KT NC=
Turbulence forte
EHAA SIGMET 1 VALID 210541/210900 EHDB
EHAA AMSTERDAM FIR SEV TURB FCST N OF LINE N5227 E00241 - N5320 E00529 - N5332 E00648 SFC/FL060 NC FCST AT 0900Z N OF LINE N5438 E00248 - N5422 E00442 - N5409 E00635=



MET'MAP, la Météo Aéronautique d'un coup d'oeil ! - Copyright ORBIFLY Décembre 2007 - Disclaimer

ORBIFLY MET'MAP TEAM :

Programmation & Développement : Alexandra Zaïnal
Conception & Développement : Baudouin d'Aumeries
Co-Programmation & Développement : Marc-Olivier Méhu
Soutien technique & logistique : Manuel Goepfert

Contact : metmap@orbifly.com




SOURCES & CREDITS :

   NOAA